Time;durP1;ratioP1;P1;durP2;ratioP2;P2;SDS_P1;SDS_P2;PMS_P1;PMS_P2;Temp;Humidity;BMP_temperature;BMP_pressure;BME280_temperature;BME280_humidity;BME280_pressure;Samples;Min_cycle;Max_cycle;Signal;HPM_P1;HPM_P2
2021/12/04 00:02:07;;;;;;;9.90;6.00;;;;;;;-1.07;77.47;99241.97;1731696;80;21359;-56
2021/12/04 00:04:36;;;;;;;11.40;7.37;;;;;;;-1.07;77.41;99243.28;1730640;80;21133;-56
2021/12/04 00:07:07;;;;;;;13.57;7.87;;;;;;;-1.06;77.40;99244.16;1731509;81;21534;-56
2021/12/04 00:09:33;;;;;;;9.70;6.37;;;;;;;-1.05;77.42;99250.77;1667964;84;20935;-56
2021/12/04 00:12:02;;;;;;;13.07;7.47;;;;;;;-1.04;77.36;99245.91;1714066;82;21068;-56
2021/12/04 00:14:30;;;;;;;11.13;6.60;;;;;;;-1.05;77.32;99244.16;1703059;82;20958;-56
2021/12/04 00:16:57;;;;;;;10.03;6.77;;;;;;;-1.06;77.29;99242.40;1704009;82;21101;-56
2021/12/04 00:19:24;;;;;;;9.83;6.50;;;;;;;-1.07;77.28;99240.64;1704003;82;20949;-56
2021/12/04 00:21:51;;;;;;;10.20;5.73;;;;;;;-1.06;77.24;99242.84;1698500;83;21389;-56
2021/12/04 00:24:18;;;;;;;11.30;6.23;;;;;;;-1.05;77.28;99243.28;1700329;82;21374;-56
2021/12/04 00:26:45;;;;;;;10.97;6.03;;;;;;;-1.08;77.24;99233.61;1699523;83;21036;-56
2021/12/04 00:29:12;;;;;;;10.90;7.20;;;;;;;-1.07;77.22;99243.73;1699042;82;21766;-56
2021/12/04 00:31:45;;;;;;;10.00;6.47;;;;;;;-1.11;77.20;99246.87;1703627;82;21081;-56
2021/12/04 00:34:08;;;;;;;11.70;6.57;;;;;;;-1.11;77.25;99242.03;1704905;82;21515;-56
2021/12/04 00:36:50;;;;;;;8.90;6.00;;;;;;;-1.11;77.20;99243.34;1700929;82;21049;-56
2021/12/04 00:50:04;;;;;;;9.13;5.50;;;;;;;-1.11;77.16;99249.51;1703187;82;27102;-55
2021/12/04 00:52:31;;;;;;;9.07;6.60;;;;;;;-1.14;77.12;99256.13;1701894;83;21128;-56
2021/12/04 00:54:57;;;;;;;11.93;6.70;;;;;;;-1.15;77.13;99252.61;1700139;82;21814;-56
2021/12/04 00:57:24;;;;;;;7.27;5.20;;;;;;;-1.16;77.08;99261.86;1701941;82;21394;-56
2021/12/04 00:59:50;;;;;;;16.27;7.00;;;;;;;-1.17;77.15;99254.38;1702138;82;20978;-55
2021/12/04 01:02:20;;;;;;;9.70;6.10;;;;;;;-1.20;77.10;99253.11;1702424;83;21070;-56
2021/12/04 01:04:47;;;;;;;8.20;5.63;;;;;;;-1.22;77.15;99260.61;1702483;82;21423;-55
2021/12/04 01:07:14;;;;;;;10.47;5.50;;;;;;;-1.23;77.16;99260.17;1704301;82;21611;-55
2021/12/04 01:09:40;;;;;;;6.40;4.80;;;;;;;-1.25;77.20;99257.54;1703565;82;21342;-55
2021/12/04 01:12:07;;;;;;;7.03;4.67;;;;;;;-1.25;77.27;99252.70;1721717;82;20992;-55
2021/12/04 01:14:34;;;;;;;8.53;4.73;;;;;;;-1.26;77.19;99260.19;1739291;80;20915;-55
2021/12/04 01:17:00;;;;;;;8.27;5.67;;;;;;;-1.28;77.25;99259.34;1740642;80;21626;-55
2021/12/04 01:19:27;;;;;;;5.13;3.13;;;;;;;-1.28;77.31;99263.31;1736614;80;21778;-55
2021/12/04 01:21:53;;;;;;;7.87;4.93;;;;;;;-1.29;77.26;99263.75;1739184;81;21373;-55
2021/12/04 01:24:20;;;;;;;7.87;5.10;;;;;;;-1.30;77.24;99265.08;1740218;81;21395;-55
2021/12/04 01:26:47;;;;;;;9.00;4.87;;;;;;;-1.30;77.29;99269.92;1742848;80;20927;-55
2021/12/04 01:29:15;;;;;;;7.80;4.87;;;;;;;-1.30;77.27;99271.23;1737739;82;20938;-55
2021/12/04 01:31:41;;;;;;;7.63;4.77;;;;;;;-1.30;77.28;99273.00;1739759;81;21406;-55
2021/12/04 01:34:07;;;;;;;8.60;5.20;;;;;;;-1.30;77.28;99271.68;1739391;80;21463;-55
2021/12/04 01:36:33;;;;;;;7.13;5.03;;;;;;;-1.31;77.28;99278.72;1739604;80;20994;-57
2021/12/04 01:39:00;;;;;;;7.73;4.33;;;;;;;-1.31;77.29;99280.48;1736971;80;20973;-58
2021/12/04 01:41:26;;;;;;;9.87;5.73;;;;;;;-1.32;77.27;99273.01;1738215;81;20926;-57
2021/12/04 01:43:53;;;;;;;6.97;4.23;;;;;;;-1.32;77.31;99276.09;1737950;81;21106;-58
2021/12/04 01:46:19;;;;;;;7.37;4.67;;;;;;;-1.32;77.29;99269.48;1738969;82;20925;-58
2021/12/04 01:48:45;;;;;;;6.30;4.10;;;;;;;-1.32;77.24;99272.13;1740119;82;20962;-58
2021/12/04 01:51:12;;;;;;;12.03;5.57;;;;;;;-1.34;77.27;99281.38;1737883;80;21030;-57
2021/12/04 01:53:38;;;;;;;4.90;4.03;;;;;;;-1.33;77.27;99279.61;1734520;80;21461;-58
2021/12/04 01:56:04;;;;;;;8.90;4.77;;;;;;;-1.33;77.20;99280.94;1733844;81;21622;-58
2021/12/04 01:58:31;;;;;;;8.33;5.07;;;;;;;-1.35;77.09;99287.55;1732482;80;21307;-57
2021/12/04 02:00:57;;;;;;;8.30;5.23;;;;;;;-1.38;77.10;99295.51;1735081;80;21641;-57
2021/12/04 02:03:23;;;;;;;9.63;4.87;;;;;;;-1.39;77.16;99296.83;1734045;80;21563;-58
2021/12/04 02:05:50;;;;;;;9.97;5.27;;;;;;;-1.41;77.14;99294.20;1735326;81;21462;-58
2021/12/04 02:08:22;;;;;;;9.20;5.13;;;;;;;-1.43;77.13;99293.33;1737541;82;21161;-58
2021/12/04 02:10:53;;;;;;;11.30;6.10;;;;;;;-1.44;77.13;99289.38;1739733;80;20965;-57
2021/12/04 02:13:19;;;;;;;9.47;5.10;;;;;;;-1.43;77.15;99295.09;1733168;80;20997;-58
2021/12/04 02:15:46;;;;;;;7.67;4.20;;;;;;;-1.45;77.16;99293.80;1735005;81;20880;-58
2021/12/04 02:18:13;;;;;;;12.07;4.93;;;;;;;-1.44;77.13;99299.93;1734036;80;20987;-57
2021/12/04 02:20:40;;;;;;;7.93;4.10;;;;;;;-1.45;77.14;99299.53;1730249;80;21117;-57
2021/12/04 02:23:08;;;;;;;9.80;4.30;;;;;;;-1.46;77.20;99298.66;1734211;80;21516;-58
2021/12/04 02:25:35;;;;;;;9.40;4.43;;;;;;;-1.46;77.13;99309.21;1730462;81;21073;-57
2021/12/04 02:28:03;;;;;;;8.17;4.90;;;;;;;-1.49;77.13;99303.94;1730584;80;21042;-57
2021/12/04 02:30:32;;;;;;;8.30;4.57;;;;;;;-1.48;77.12;99308.78;1732931;80;21534;-58
2021/12/04 02:32:58;;;;;;;8.03;4.50;;;;;;;-1.51;77.09;99301.75;1735125;80;21144;-58
2021/12/04 02:35:25;;;;;;;8.03;4.13;;;;;;;-1.52;77.11;99310.11;1736166;80;21373;-58
2021/12/04 02:37:53;;;;;;;8.03;4.30;;;;;;;-1.54;77.09;99313.23;1732919;80;21073;-57
2021/12/04 02:40:22;;;;;;;5.87;4.50;;;;;;;-1.55;77.09;99313.23;1671784;83;21054;-58
2021/12/04 02:42:49;;;;;;;9.40;4.50;;;;;;;-1.55;77.08;99310.59;1734051;82;21100;-58
2021/12/04 02:45:15;;;;;;;8.47;4.10;;;;;;;-1.57;77.05;99314.55;1733808;81;21340;-58
2021/12/04 02:47:41;;;;;;;9.73;3.93;;;;;;;-1.57;77.08;99312.36;1732374;82;21449;-58
2021/12/04 02:50:11;;;;;;;6.80;3.73;;;;;;;-1.59;77.08;99317.64;1730118;82;21081;-57
2021/12/04 02:52:38;;;;;;;5.00;3.93;;;;;;;-1.57;77.08;99321.16;1669727;83;21611;-58
2021/12/04 02:55:05;;;;;;;6.57;3.60;;;;;;;-1.55;77.09;99313.23;1735166;81;21527;-58
2021/12/04 02:57:33;;;;;;;5.97;4.03;;;;;;;-1.54;77.05;99307.95;1737784;80;21766;-57
2021/12/04 02:59:59;;;;;;;7.70;4.43;;;;;;;-1.55;77.00;99303.55;1735550;81;21472;-58
2021/12/04 03:02:26;;;;;;;7.53;4.10;;;;;;;-1.54;76.96;99306.63;1737285;81;20871;-58
2021/12/04 03:04:58;;;;;;;4.83;2.90;;;;;;;-1.52;76.99;99310.55;1734316;80;21591;-57
2021/12/04 03:07:24;;;;;;;6.80;4.00;;;;;;;-1.52;76.94;99308.79;1735220;81;20993;-58
2021/12/04 03:09:50;;;;;;;7.33;4.07;;;;;;;-1.55;76.87;99302.23;1733823;80;21791;-58
2021/12/04 03:12:23;;;;;;;6.47;4.17;;;;;;;-1.57;76.78;99301.36;1737486;81;21412;-57
2021/12/04 03:14:50;;;;;;;8.80;4.00;;;;;;;-1.59;76.78;99308.41;1738813;80;20955;-57
2021/12/04 03:17:19;;;;;;;8.03;3.17;;;;;;;-1.61;76.81;99313.25;1735262;80;20972;-57
2021/12/04 03:19:46;;;;;;;8.70;4.00;;;;;;;-1.63;76.83;99315.92;1699743;83;20970;-58
2021/12/04 03:22:14;;;;;;;10.83;4.60;;;;;;;-1.64;76.76;99325.16;1683730;83;20946;-58
2021/12/04 03:24:42;;;;;;;6.17;4.90;;;;;;;-1.68;76.79;99320.33;1735677;80;21046;-57
2021/12/04 03:27:08;;;;;;;9.97;3.50;;;;;;;-1.68;76.79;99319.02;1736233;80;21006;-57
2021/12/04 03:29:39;;;;;;;6.20;4.03;;;;;;;-1.67;76.88;99321.21;1699970;83;20899;-58
2021/12/04 03:40:38;;;;;;;7.15;4.55;;;;;;;-1.70;76.66;99327.38;1683751;83;21560;-58
2021/12/04 03:43:05;;;;;;;6.63;4.10;;;;;;;-1.72;76.62;99323.02;1735357;80;21020;-58
2021/12/04 03:45:33;;;;;;;8.33;4.23;;;;;;;-1.73;76.64;99335.33;1738231;80;21013;-57
2021/12/04 03:48:07;;;;;;;6.30;4.13;;;;;;;-1.73;76.66;99341.92;1735422;80;21370;-58
2021/12/04 03:50:27;;;;;;;7.77;3.90;;;;;;;-1.72;76.67;99334.45;1735092;80;20973;-58
2021/12/04 03:52:54;;;;;;;9.20;3.90;;;;;;;-1.70;76.59;99341.05;1736305;80;21307;-58
2021/12/04 03:55:20;;;;;;;10.13;3.67;;;;;;;-1.71;76.54;99336.20;1737923;80;21505;-58
2021/12/04 03:57:47;;;;;;;10.93;4.23;;;;;;;-1.70;76.50;99335.30;1739348;80;20946;-58
2021/12/04 04:00:14;;;;;;;8.97;3.47;;;;;;;-1.70;76.45;99341.89;1737678;81;21129;-58
2021/12/04 04:02:41;;;;;;;9.07;3.37;;;;;;;-1.69;76.38;99338.37;1739842;80;20979;-57
2021/12/04 04:05:08;;;;;;;7.10;3.43;;;;;;;-1.69;76.30;99348.92;1741811;81;21050;-57
2021/12/04 04:07:34;;;;;;;4.40;3.70;;;;;;;-1.70;76.27;99347.17;1738732;82;21046;-58
2021/12/04 04:10:01;;;;;;;7.30;3.53;;;;;;;-1.71;76.19;99349.84;1739394;82;20981;-58
2021/12/04 04:12:27;;;;;;;3.33;2.73;;;;;;;-1.72;76.09;99346.77;1740652;80;21055;-57
2021/12/04 04:14:53;;;;;;;9.47;3.87;;;;;;;-1.75;76.05;99348.09;1736681;81;20903;-57
2021/12/04 04:17:19;;;;;;;6.07;3.67;;;;;;;-1.77;76.04;99352.48;1736047;80;21682;-58
2021/12/04 04:19:46;;;;;;;11.10;4.87;;;;;;;-1.77;76.06;99352.05;1736200;80;22047;-58
2021/12/04 04:22:12;;;;;;;8.57;4.17;;;;;;;-1.81;76.05;99346.37;1737072;81;20936;-57
2021/12/04 04:27:18;;;;;;;10.40;4.90;;;;;;;-1.78;75.98;99341.05;1848761;75;27183;-56
2021/12/04 04:29:44;;;;;;;8.97;4.13;;;;;;;-1.83;75.95;99349.45;1806543;77;21188;-56
2021/12/04 04:32:11;;;;;;;6.37;4.53;;;;;;;-1.84;75.86;99346.81;1799085;77;22390;-56
2021/12/04 04:34:38;;;;;;;6.10;4.00;;;;;;;-1.85;75.82;99349.89;1792253;79;20899;-56
2021/12/04 04:37:23;;;;;;;9.57;4.27;;;;;;;-1.86;75.81;99357.37;1789924;79;20902;-56
2021/12/04 05:15:20;;;;;;;6.67;3.63;;;;;;;-2.10;75.53;99381.22;1790181;79;21444;-56
2021/12/04 05:20:21;;;;;;;11.57;4.33;;;;;;;-2.13;75.53;99378.17;1793286;77;20953;-55
2021/12/04 05:22:42;;;;;;;8.23;4.33;;;;;;;-2.13;75.52;99377.30;1789430;78;20933;-55
2021/12/04 05:25:08;;;;;;;8.87;4.40;;;;;;;-2.13;75.55;99373.34;1790769;78;21741;-56
2021/12/04 05:27:35;;;;;;;9.90;4.97;;;;;;;-2.13;75.50;99374.22;1761074;79;21471;-55
2021/12/04 05:30:02;;;;;;;9.83;4.80;;;;;;;-2.13;75.50;99379.93;1790257;79;20921;-55
2021/12/04 05:32:28;;;;;;;15.33;5.87;;;;;;;-2.13;75.47;99376.85;1789899;78;21068;-55
2021/12/04 05:34:55;;;;;;;11.43;4.27;;;;;;;-2.14;75.43;99376.85;1787195;79;21084;-56
2021/12/04 05:37:21;;;;;;;13.53;4.37;;;;;;;-2.16;75.47;99390.48;1787352;79;21442;-55
2021/12/04 05:39:47;;;;;;;10.60;4.53;;;;;;;-2.15;75.50;99386.52;1790943;79;20882;-56
2021/12/04 05:42:14;;;;;;;13.67;4.63;;;;;;;-2.14;75.51;99396.63;1791296;79;20930;-55
2021/12/04 05:44:42;;;;;;;12.57;4.73;;;;;;;-2.14;75.39;99396.19;1792065;79;20933;-56
2021/12/04 05:47:16;;;;;;;14.13;4.17;;;;;;;-2.15;75.39;99392.23;1789204;79;20895;-56
2021/12/04 05:52:15;;;;;;;10.50;5.93;;;;;;;-2.17;75.41;99395.31;1785398;79;21069;-56
2021/12/04 05:57:08;;;;;;;10.60;4.13;;;;;;;-2.16;75.52;99401.91;1788758;79;21060;-56
2021/12/04 05:59:34;;;;;;;8.93;4.60;;;;;;;-2.13;75.45;99405.86;1791910;77;21552;-55
2021/12/04 06:02:02;;;;;;;8.87;4.77;;;;;;;-2.11;75.40;99410.66;1793970;77;21586;-55
2021/12/04 06:04:28;;;;;;;13.13;4.50;;;;;;;-2.10;75.37;99412.86;1799545;79;21709;-55
2021/12/04 06:06:54;;;;;;;8.10;4.27;;;;;;;-2.09;75.39;99418.14;1791326;79;21036;-55
2021/12/04 06:09:22;;;;;;;9.53;5.27;;;;;;;-2.06;75.34;99414.63;1790371;79;21387;-56
2021/12/04 06:11:49;;;;;;;11.70;4.73;;;;;;;-2.07;75.36;99420.77;1789155;79;21052;-56
2021/12/04 06:14:15;;;;;;;10.13;4.80;;;;;;;-2.03;75.34;99425.14;1791740;79;21097;-56
2021/12/04 06:16:41;;;;;;;9.57;4.50;;;;;;;-2.03;75.31;99426.02;1790199;79;21578;-56
2021/12/04 06:22:37;;;;;;;11.53;4.33;;;;;;;-2.01;75.37;99428.66;1791155;77;21025;-56
2021/12/04 06:24:43;;;;;;;9.87;4.67;;;;;;;-1.97;75.31;99437.89;1751156;79;21068;-56
2021/12/04 06:27:08;;;;;;;11.80;4.70;;;;;;;-1.95;75.24;99432.14;1756695;79;21526;-56
2021/12/04 06:29:34;;;;;;;10.90;5.00;;;;;;;-1.94;75.18;99428.63;1767054;79;21033;-56
2021/12/04 06:32:01;;;;;;;11.93;6.47;;;;;;;-1.93;75.21;99427.75;1736726;80;21040;-56
2021/12/04 06:34:27;;;;;;;17.73;10.27;;;;;;;-1.88;75.28;99433.47;1734340;81;21143;-55
2021/12/04 06:36:54;;;;;;;20.60;9.47;;;;;;;-1.85;75.25;99429.04;1741278;81;21087;-55
2021/12/04 06:39:20;;;;;;;12.87;7.73;;;;;;;-1.81;75.21;99425.96;1738614;81;22943;-55
2021/12/04 06:41:48;;;;;;;11.40;5.93;;;;;;;-1.79;75.18;99426.41;1737926;81;21048;-55
2021/12/04 06:44:15;;;;;;;8.90;5.23;;;;;;;-1.76;75.18;99426.37;1742009;81;20930;-55
2021/12/04 06:46:42;;;;;;;12.37;5.67;;;;;;;-1.72;75.16;99428.56;1743554;80;20977;-55
2021/12/04 06:49:21;;;;;;;19.43;5.63;;;;;;;-1.70;75.16;99430.29;1742885;81;20937;-55
2021/12/04 06:51:47;;;;;;;12.60;5.72;;;;;;;-1.64;75.15;99428.97;1739773;80;21670;-55
2021/12/04 06:54:18;;;;;;;12.07;5.93;;;;;;;-1.60;75.07;99428.48;1739851;81;20914;-55
2021/12/04 06:56:41;;;;;;;10.30;5.13;;;;;;;-1.56;75.10;99428.92;1741600;81;20926;-55
2021/12/04 06:59:10;;;;;;;13.67;6.37;;;;;;;-1.53;75.08;99419.21;1741520;80;20926;-55
2021/12/04 07:01:36;;;;;;;13.80;6.37;;;;;;;-1.48;75.04;99423.16;1741642;81;21497;-54
2021/12/04 07:04:03;;;;;;;12.53;5.33;;;;;;;-1.45;75.00;99423.60;1739828;81;21089;-55
2021/12/04 07:06:29;;;;;;;12.90;6.73;;;;;;;-1.43;74.96;99425.77;1735727;81;21124;-54
2021/12/04 07:08:57;;;;;;;15.03;7.10;;;;;;;-1.40;75.02;99429.28;1738155;81;21048;-55
2021/12/04 07:11:25;;;;;;;11.40;6.90;;;;;;;-1.35;75.04;99431.88;1737976;81;21164;-55
2021/12/04 07:13:51;;;;;;;17.47;7.43;;;;;;;-1.29;74.95;99439.34;1740984;81;21321;-55
2021/12/04 07:16:21;;;;;;;11.47;6.57;;;;;;;-1.25;74.85;99440.19;1736277;80;21377;-55
2021/12/04 07:18:48;;;;;;;11.43;6.17;;;;;;;-1.22;74.86;99439.73;1746127;81;20929;-55
2021/12/04 07:21:15;;;;;;;12.13;6.40;;;;;;;-1.20;74.77;99434.45;1744762;81;21075;-55
2021/12/04 07:23:41;;;;;;;9.57;5.47;;;;;;;-1.18;74.88;99438.81;1736531;80;21005;-55
2021/12/04 07:26:07;;;;;;;14.23;6.33;;;;;;;-1.13;74.81;99428.69;1733762;81;21753;-55
2021/12/04 07:28:34;;;;;;;13.93;5.50;;;;;;;-1.08;74.84;99438.31;1738382;81;22025;-55
2021/12/04 07:31:00;;;;;;;11.43;6.23;;;;;;;-1.05;74.88;99440.95;1739826;81;22103;-54
2021/12/04 07:33:27;;;;;;;16.37;7.00;;;;;;;-1.02;74.86;99437.42;1740720;81;21479;-55
2021/12/04 07:35:53;;;;;;;13.73;6.60;;;;;;;-0.99;74.85;99438.26;1741003;81;20917;-54
2021/12/04 07:38:20;;;;;;;11.50;7.60;;;;;;;-0.95;74.90;99434.72;1742123;81;21146;-54
2021/12/04 07:40:46;;;;;;;13.83;7.00;;;;;;;-0.91;74.98;99441.72;1735722;81;21148;-54
2021/12/04 07:43:13;;;;;;;16.60;7.43;;;;;;;-0.84;74.89;99442.55;1736545;81;21814;-54
2021/12/04 07:45:39;;;;;;;9.23;5.27;;;;;;;-0.81;74.89;99435.48;1742585;81;21412;-54
2021/12/04 07:48:05;;;;;;;14.07;6.33;;;;;;;-0.74;74.84;99440.27;1745876;81;20945;-55
2021/12/04 07:50:32;;;;;;;13.23;6.70;;;;;;;-0.68;74.69;99440.69;1741484;81;21005;-55
2021/12/04 07:52:58;;;;;;;15.23;7.43;;;;;;;-0.65;74.66;99440.20;1742976;81;21536;-55
2021/12/04 07:55:25;;;;;;;14.20;6.83;;;;;;;-0.58;74.53;99441.02;1747274;81;21059;-54
2021/12/04 07:57:53;;;;;;;13.07;7.77;;;;;;;-0.55;74.53;99446.29;1740855;81;21044;-57
2021/12/04 08:00:20;;;;;;;10.10;6.53;;;;;;;-0.49;74.53;99454.16;1739348;81;21884;-55
2021/12/04 08:02:48;;;;;;;16.03;7.53;;;;;;;-0.45;74.33;99455.46;1739913;81;21380;-55
2021/12/04 08:05:15;;;;;;;15.80;6.80;;;;;;;-0.43;74.28;99452.36;1739973;81;21023;-55
2021/12/04 08:07:41;;;;;;;16.27;7.43;;;;;;;-0.40;74.24;99451.44;1739988;81;20886;-55
2021/12/04 08:10:09;;;;;;;18.10;7.30;;;;;;;-0.38;74.26;99443.05;1736595;81;21343;-55
2021/12/04 08:12:36;;;;;;;13.60;8.10;;;;;;;-0.33;74.27;99441.23;1739961;81;20898;-55
2021/12/04 08:15:06;;;;;;;11.87;6.60;;;;;;;-0.28;74.19;99444.72;1739587;81;21048;-55
2021/12/04 08:17:33;;;;;;;15.27;7.43;;;;;;;-0.23;74.09;99437.61;1734638;81;22451;-56
2021/12/04 08:19:59;;;;;;;13.57;7.50;;;;;;;-0.17;74.08;99437.53;1734085;81;21521;-55
2021/12/04 08:22:26;;;;;;;12.30;6.70;;;;;;;-0.11;73.95;99430.88;1737855;81;21144;-55
2021/12/04 08:24:52;;;;;;;13.70;8.40;;;;;;;-0.08;73.90;99433.92;1738963;81;21107;-55
2021/12/04 08:27:18;;;;;;;15.00;7.67;;;;;;;-0.05;73.90;99436.55;1745152;79;21170;-55
2021/12/04 08:29:45;;;;;;;12.73;7.93;;;;;;;0.00;73.68;99436.91;1741342;81;22047;-58
2021/12/04 08:32:12;;;;;;;13.60;7.67;;;;;;;0.05;73.69;99438.65;1739169;81;21099;-55
2021/12/04 08:34:39;;;;;;;15.00;8.80;;;;;;;0.08;73.48;99427.59;1739764;81;21108;-55
2021/12/04 08:37:05;;;;;;;16.07;9.00;;;;;;;0.11;73.45;99438.57;1741629;81;21064;-55
2021/12/04 08:39:32;;;;;;;16.57;8.73;;;;;;;0.14;73.39;99437.23;1739927;81;20880;-55
2021/12/04 08:41:59;;;;;;;19.23;9.33;;;;;;;0.14;73.22;99430.16;1741498;81;21098;-55
2021/12/04 08:44:25;;;;;;;16.03;8.87;;;;;;;0.16;73.18;99435.00;1738189;81;21087;-55
2021/12/04 08:46:52;;;;;;;15.33;9.47;;;;;;;0.19;73.14;99424.80;1742831;81;21514;-55
2021/12/04 08:49:18;;;;;;;16.80;10.93;;;;;;;0.19;72.96;99420.39;1739599;81;21534;-55
2021/12/04 08:51:44;;;;;;;16.63;10.07;;;;;;;0.21;72.95;99423.90;1739733;81;21073;-55
2021/12/04 08:54:11;;;;;;;19.17;10.20;;;;;;;0.24;72.94;99415.93;1744841;81;21140;-55
2021/12/04 08:56:37;;;;;;;16.77;9.03;;;;;;;0.27;72.88;99409.70;1747201;81;21132;-55
2021/12/04 08:59:05;;;;;;;14.37;7.70;;;;;;;0.31;72.93;99401.72;1741188;81;21100;-55
2021/12/04 09:01:34;;;;;;;15.90;8.63;;;;;;;0.39;72.86;99396.32;1736607;79;20965;-55
2021/12/04 09:04:08;;;;;;;17.53;8.90;;;;;;;0.46;72.66;99395.78;1736633;81;21044;-55
2021/12/04 09:06:35;;;;;;;16.83;8.73;;;;;;;0.49;72.52;99399.73;1736555;81;21526;-55
2021/12/04 09:09:04;;;;;;;16.07;8.80;;;;;;;0.54;72.40;99402.73;1739030;81;20973;-55
2021/12/04 09:11:39;;;;;;;24.10;9.13;;;;;;;0.59;72.43;99398.71;1738956;81;21125;-55
2021/12/04 09:14:06;;;;;;;19.13;8.30;;;;;;;0.60;72.18;99390.72;1738709;81;21132;-55
2021/12/04 09:16:33;;;;;;;18.87;9.07;;;;;;;0.63;72.16;99397.76;1738554;81;21017;-55
2021/12/04 09:18:59;;;;;;;12.07;8.07;;;;;;;0.65;72.04;99388.90;1743240;81;21511;-55
2021/12/04 09:21:27;;;;;;;17.43;8.50;;;;;;;0.67;71.96;99384.91;1743547;81;21396;-55
2021/12/04 09:24:13;;;;;;;19.33;9.63;;;;;;;0.70;72.22;99383.08;1746202;81;21056;-55
2021/12/04 09:26:50;;;;;;;16.43;8.80;;;;;;;0.73;72.10;99388.34;1745053;81;20893;-55
2021/12/04 09:59:45;;;;;;;17.48;7.33;;;;;;;1.35;71.27;99365.27;1742111;81;21687;-55
2021/12/04 10:02:03;;;;;;;11.67;7.07;;;;;;;1.39;71.17;99360.77;1741216;80;21068;-55
2021/12/04 10:33:54;;;;;;;13.87;7.73;;;;;;;1.71;70.41;99333.19;1734177;79;21060;-55
2021/12/04 10:36:35;;;;;;;11.13;7.23;;;;;;;1.74;70.43;99329.16;1738067;79;21037;-56
2021/12/04 10:39:03;;;;;;;10.13;6.60;;;;;;;1.77;70.20;99322.93;1737029;79;21642;-55
2021/12/04 10:41:43;;;;;;;11.33;6.23;;;;;;;1.79;70.12;99320.64;1737394;79;21116;-56
2021/12/04 10:44:22;;;;;;;13.10;6.97;;;;;;;1.83;69.98;99322.80;1734461;79;21108;-55
2021/12/04 10:47:10;;;;;;;14.83;6.83;;;;;;;1.85;69.75;99322.32;1737550;79;21674;-56
2021/12/04 10:50:37;;;;;;;10.83;7.87;;;;;;;1.86;69.84;99322.75;1738650;79;20961;-56
2021/12/04 10:55:53;;;;;;;14.23;6.97;;;;;;;1.88;69.73;99319.14;1737101;79;21087;-56
2021/12/04 11:03:26;;;;;;;14.70;5.53;;;;;;;1.93;69.28;99317.73;1735441;79;21068;-56
2021/12/04 11:06:31;;;;;;;11.93;5.10;;;;;;;1.93;69.12;99316.41;1735015;79;21908;-55
2021/12/04 11:22:30;;;;;;;13.37;7.13;;;;;;;2.01;68.67;99301.19;1734799;80;21093;-55
2021/12/04 11:41:25;;;;;;;16.27;7.43;;;;;;;2.04;68.29;99278.55;1738926;79;21102;-55
2021/12/04 11:46:26;;;;;;;14.27;7.30;;;;;;;2.04;68.11;99278.55;1733591;80;21865;-55
2021/12/04 11:48:51;;;;;;;15.80;6.33;;;;;;;2.04;68.09;99273.72;1733033;80;21048;-55
2021/12/04 11:51:23;;;;;;;14.07;6.63;;;;;;;2.04;68.03;99279.03;1732505;79;21072;-55
2021/12/04 11:53:51;;;;;;;10.73;7.13;;;;;;;2.05;68.04;99276.31;1738621;79;21089;-56
2021/12/04 11:56:28;;;;;;;14.80;7.63;;;;;;;2.04;68.13;99269.25;1738163;79;21947;-55
2021/12/04 11:58:54;;;;;;;16.43;7.53;;;;;;;2.06;68.15;99273.20;1731668;80;21147;-55
2021/12/04 12:01:31;;;;;;;17.57;8.40;;;;;;;2.07;68.08;99273.63;1739377;79;21009;-55
2021/12/04 12:03:58;;;;;;;17.47;9.17;;;;;;;2.07;68.16;99273.18;1741832;79;20977;-55
2021/12/04 12:06:41;;;;;;;18.13;9.07;;;;;;;2.10;68.26;99267.81;1739830;79;20957;-55
2021/12/04 12:09:14;;;;;;;16.17;9.43;;;;;;;2.12;68.07;99258.49;1738156;79;21452;-56
2021/12/04 12:11:57;;;;;;;13.38;8.03;;;;;;;2.11;67.91;99261.60;1741737;79;21034;-56
2021/12/04 12:14:40;;;;;;;16.00;7.90;;;;;;;2.10;67.82;99257.65;1738674;79;21029;-55
2021/12/04 12:17:06;;;;;;;18.60;9.77;;;;;;;2.09;67.87;99251.91;1737452;79;21586;-55
2021/12/04 12:19:39;;;;;;;15.87;8.97;;;;;;;2.09;68.05;99255.89;1742939;79;21460;-56
2021/12/04 12:22:20;;;;;;;20.53;10.27;;;;;;;2.08;68.18;99247.05;1737311;79;20905;-55
2021/12/04 12:36:09;;;;;;;43.13;24.10;;;;;;;2.05;68.39;99239.14;1738684;79;21009;-56
2021/12/04 12:39:01;;;;;;;29.80;16.07;;;;;;;2.05;68.39;99242.25;1736350;79;21770;-56
2021/12/04 12:41:48;;;;;;;28.40;12.00;;;;;;;2.05;68.48;99239.59;1736620;79;20925;-56
2021/12/04 12:44:27;;;;;;;21.93;12.43;;;;;;;2.01;68.54;99241.47;1737694;79;21060;-56
2021/12/04 12:47:02;;;;;;;30.27;14.07;;;;;;;2.00;68.57;99241.49;1736954;79;20929;-55
2021/12/04 12:49:38;;;;;;;23.30;14.33;;;;;;;1.96;68.69;99243.33;1749231;79;20985;-55
2021/12/04 12:52:21;;;;;;;23.60;13.37;;;;;;;1.93;68.81;99243.41;1743906;79;21073;-55
2021/12/04 12:54:55;;;;;;;22.70;12.03;;;;;;;1.91;68.84;99238.59;1738195;79;20989;-55
2021/12/04 12:57:25;;;;;;;34.27;17.37;;;;;;;1.88;68.88;99236.86;1742381;79;20914;-55
2021/12/04 13:11:48;;;;;;;28.23;16.87;;;;;;;1.72;69.45;99238.09;1737095;79;21068;-55
2021/12/04 13:14:36;;;;;;;22.83;14.60;;;;;;;1.66;69.51;99235.58;1737810;79;21260;-55
2021/12/04 13:17:11;;;;;;;23.50;13.10;;;;;;;1.61;69.59;99238.80;1734151;79;22167;-55
2021/12/04 13:19:41;;;;;;;22.20;12.35;;;;;;;1.59;69.71;99237.06;1734275;79;21808;-55
2021/12/04 13:22:14;;;;;;;23.93;12.53;;;;;;;1.56;69.85;99235.34;1738877;79;21487;-55
2021/12/04 13:24:42;;;;;;;38.50;23.73;;;;;;;1.53;69.99;99237.59;1737098;79;20965;-55
2021/12/04 13:29:43;;;;;;;34.17;20.77;;;;;;;1.44;70.26;99232.50;1737633;79;20978;-55
2021/12/04 13:32:12;;;;;;;43.93;25.73;;;;;;;1.41;70.36;99233.00;1736123;79;21090;-55
2021/12/04 13:34:40;;;;;;;32.80;20.37;;;;;;;1.38;70.42;99227.30;1737035;79;21040;-55
2021/12/04 13:37:07;;;;;;;23.33;15.87;;;;;;;1.34;70.50;99223.42;1734175;79;21126;-55
2021/12/04 13:39:36;;;;;;;35.40;20.30;;;;;;;1.30;70.60;99230.55;1735498;79;21072;-55
2021/12/04 13:42:04;;;;;;;29.00;16.37;;;;;;;1.27;70.75;99226.66;1738078;79;21128;-56
2021/12/04 13:44:31;;;;;;;35.80;21.50;;;;;;;1.24;70.86;99232.45;1737680;79;21419;-55
2021/12/04 13:47:04;;;;;;;51.20;26.20;;;;;;;1.19;70.99;99235.20;1736531;79;21487;-55
2021/12/04 13:49:39;;;;;;;43.30;23.57;;;;;;;1.15;71.08;99232.17;1737973;79;21405;-56
2021/12/04 13:52:10;;;;;;;44.67;23.60;;;;;;;1.08;71.13;99233.19;1746855;79;20972;-55
2021/12/04 13:54:50;;;;;;;45.73;26.67;;;;;;;1.01;71.22;99230.23;1736785;79;21681;-55
2021/12/04 13:57:17;;;;;;;48.70;25.07;;;;;;;0.96;71.36;99225.45;1735761;79;21113;-55
2021/12/04 13:59:45;;;;;;;39.37;22.57;;;;;;;0.90;71.50;99222.92;1737189;79;21072;-55
2021/12/04 14:02:28;;;;;;;30.43;16.97;;;;;;;0.85;71.68;99226.95;1739058;79;21092;-55
2021/12/04 14:05:08;;;;;;;32.30;17.27;;;;;;;0.80;71.75;99222.20;1738700;79;20998;-55
2021/12/04 14:07:35;;;;;;;21.80;14.17;;;;;;;0.75;71.80;99227.59;1738965;79;21757;-54
2021/12/04 14:10:18;;;;;;;23.40;14.67;;;;;;;0.68;71.92;99227.25;1737491;79;21076;-55
2021/12/04 14:12:46;;;;;;;24.90;14.28;;;;;;;0.63;72.03;99236.19;1741988;79;20902;-55
2021/12/04 14:15:16;;;;;;;19.77;13.47;;;;;;;0.56;72.10;99235.87;1737468;79;21096;-55
2021/12/04 14:17:42;;;;;;;27.00;15.83;;;;;;;0.50;72.23;99230.68;1738661;79;21458;-55
2021/12/04 14:20:12;;;;;;;25.93;13.73;;;;;;;0.45;72.30;99233.38;1743054;79;21546;-55
2021/12/04 14:22:50;;;;;;;25.90;14.87;;;;;;;0.40;72.40;99244.95;1738077;79;21250;-55
2021/12/04 14:25:17;;;;;;;34.00;20.17;;;;;;;0.35;72.48;99233.97;1736330;79;21092;-55
2021/12/04 14:27:44;;;;;;;51.70;30.93;;;;;;;0.31;72.55;99238.91;1744020;79;21434;-55
2021/12/04 14:30:16;;;;;;;47.47;30.13;;;;;;;0.26;72.64;99238.08;1737803;79;21396;-55
2021/12/04 14:32:50;;;;;;;50.92;30.57;;;;;;;0.22;72.76;99239.48;1737699;79;21303;-56
2021/12/04 14:35:15;;;;;;;46.00;25.97;;;;;;;0.16;72.91;99238.27;1737603;79;21153;-55
2021/12/04 14:37:45;;;;;;;45.77;26.33;;;;;;;0.12;73.02;99233.45;1740374;79;20973;-55
2021/12/04 14:40:15;;;;;;;56.87;30.37;;;;;;;0.08;73.06;99234.41;1737918;79;22342;-55
2021/12/04 14:42:43;;;;;;;44.93;26.80;;;;;;;0.05;73.11;99233.56;1740375;79;21012;-55
2021/12/04 14:45:20;;;;;;;38.63;23.50;;;;;;;0.02;73.23;99237.13;1744803;79;21060;-55
2021/12/04 14:47:58;;;;;;;39.13;22.27;;;;;;;-0.01;73.31;99238.06;1737352;79;21550;-55
2021/12/04 14:50:25;;;;;;;31.73;19.53;;;;;;;-0.03;73.33;99229.71;1733756;79;21135;-55
2021/12/04 14:52:57;;;;;;;31.07;19.27;;;;;;;-0.06;73.38;99235.03;1734691;79;21107;-55